createdAt,value
2018-06-05T00:05:19.502Z,5.11
2018-06-05T00:11:14.524Z,4.94
2018-06-05T00:17:09.538Z,5.29
2018-06-05T00:23:04.509Z,5.07
2018-06-05T00:28:59.529Z,5.07
2018-06-05T00:34:54.505Z,5.39
2018-06-05T00:40:49.493Z,4.7
2018-06-05T00:46:46.569Z,5.11
2018-06-05T00:52:41.797Z,5.31
2018-06-05T00:58:34.493Z,5.99
2018-06-05T01:04:31.192Z,5.51
2018-06-05T01:10:25.222Z,6.96
2018-06-05T01:16:19.507Z,6.72
2018-06-05T01:22:14.514Z,6.31
2018-06-05T01:28:09.501Z,6.94
2018-06-05T01:34:04.480Z,7.26
2018-06-05T01:40:10.677Z,7.27
2018-06-05T01:45:55.884Z,7.1
2018-06-05T01:51:54.623Z,6.46
2018-06-05T01:57:44.564Z,6.21
2018-06-05T02:03:39.509Z,5.49
2018-06-05T02:09:34.522Z,6.75
2018-06-05T02:15:29.580Z,6.29
2018-06-05T02:21:29.716Z,6.33
2018-06-05T02:27:23.973Z,6.96
2018-06-05T02:33:14.531Z,6.03
2018-06-05T02:39:09.535Z,6.39
2018-06-05T02:45:04.492Z,6.57
2018-06-05T02:51:04.667Z,6.79
2018-06-05T02:56:54.534Z,8.87
2018-06-05T03:02:49.862Z,7.74
2018-06-05T03:08:49.764Z,6.54
2018-06-05T03:14:39.519Z,7.27
2018-06-05T03:20:34.698Z,6.03
2018-06-05T03:26:34.814Z,7.03
2018-06-05T03:32:24.525Z,7.12
2018-06-05T03:38:19.998Z,7.97
2018-06-05T03:44:14.541Z,7.45
2018-06-05T03:50:09.539Z,8.66
2018-06-05T03:56:14.216Z,8.28
2018-06-05T04:01:59.534Z,7.15
2018-06-05T04:07:59.656Z,7.51
2018-06-05T04:13:53.703Z,7.36
2018-06-05T04:19:55.576Z,6.71
2018-06-05T04:25:39.547Z,6.68
2018-06-05T04:31:35.201Z,6.75
2018-06-05T04:37:29.545Z,7.69
2018-06-05T04:43:24.586Z,7.45
2018-06-05T04:49:24.666Z,8.36
2018-06-05T04:55:25.520Z,7.74
2018-06-05T05:01:10.163Z,7.53
2018-06-05T05:07:04.524Z,8.6
2018-06-05T05:12:59.525Z,7.17
2018-06-05T05:18:54.553Z,8.23
2018-06-05T05:24:49.555Z,6.45
2018-06-05T05:30:44.551Z,7.3
2018-06-05T05:36:44.730Z,6.4
2018-06-05T05:42:36.695Z,7.55
2018-06-05T05:48:31.692Z,7.46
2018-06-05T05:54:24.570Z,8.35
2018-06-05T06:00:24.655Z,8.38
2018-06-05T06:06:14.651Z,10.01
2018-06-05T06:12:11.533Z,6.6
2018-06-05T06:18:04.555Z,7.76
2018-06-05T06:23:59.555Z,6.98
2018-06-05T06:29:59.758Z,7.76
2018-06-05T06:35:49.616Z,7.16
2018-06-05T06:41:46.821Z,9.61
2018-06-05T06:47:39.551Z,6.67
2018-06-05T06:53:34.572Z,7.37
2018-06-05T06:59:29.519Z,7.84
2018-06-05T07:05:24.568Z,7.91
2018-06-05T07:11:21.834Z,8.4
2018-06-05T07:17:19.675Z,6.03
2018-06-05T07:23:14.031Z,7.16
2018-06-05T07:29:09.724Z,8.38
2018-06-05T07:34:59.516Z,7
2018-06-05T07:40:54.864Z,9.22
2018-06-05T07:46:54.723Z,8.51
2018-06-05T07:52:44.537Z,8.55
2018-06-05T07:58:39.559Z,6.62
2018-06-05T08:04:34.601Z,7.09
2018-06-05T08:10:29.673Z,8.43
2018-06-05T08:16:25.077Z,6.87
2018-06-05T08:22:19.565Z,7.16
2018-06-05T08:28:16.635Z,6.66
2018-06-05T08:34:09.594Z,7.37
2018-06-05T08:40:04.565Z,7.93
2018-06-05T08:46:00.642Z,7.92
2018-06-05T08:51:54.669Z,7.71
2018-06-05T08:57:51.652Z,7.47
2018-06-05T09:03:44.518Z,8.79
2018-06-05T09:09:39.546Z,7.39
2018-06-05T09:15:34.569Z,7.71
2018-06-05T09:21:29.565Z,6.96
2018-06-05T09:27:24.548Z,7.61
2018-06-05T09:33:19.537Z,6.43
2018-06-05T09:39:19.584Z,7.6
2018-06-05T09:45:11.158Z,6.74
2018-06-05T09:51:04.564Z,8.75
2018-06-05T09:56:59.548Z,13.24
2018-06-05T10:02:55.215Z,12.62
2018-06-05T10:08:49.556Z,10.05
2018-06-05T10:14:46.738Z,9.91
2018-06-05T10:20:39.556Z,9.75
2018-06-05T10:26:36.691Z,9.74
2018-06-05T10:32:29.589Z,10.93
2018-06-05T10:38:24.566Z,9.95
2018-06-05T10:44:19.586Z,10.78
2018-06-05T10:50:14.542Z,8.97
2018-06-05T10:56:09.631Z,12
2018-06-05T11:02:04.612Z,7.51
2018-06-05T11:07:59.570Z,8.05
2018-06-05T11:13:54.562Z,10.36
2018-06-05T11:19:49.588Z,6.64
2018-06-05T11:25:44.557Z,15.94
2018-06-05T11:31:39.628Z,7.7
2018-06-05T11:37:34.606Z,10.76
2018-06-05T11:43:29.605Z,11.9
2018-06-05T11:49:26.503Z,7.37
2018-06-05T11:55:19.573Z,7.81
2018-06-05T12:01:14.552Z,6.64
2018-06-05T12:07:09.595Z,5.95
2018-06-05T12:13:04.779Z,6.43
2018-06-05T12:18:59.619Z,11.29
2018-06-05T12:24:55.228Z,6.49
2018-06-05T12:30:49.602Z,5.82
2018-06-05T12:36:46.691Z,7.09
2018-06-05T12:42:40.038Z,9.88
2018-06-05T12:48:45.598Z,6.4
2018-06-05T12:54:30.276Z,5.34
2018-06-05T13:00:24.542Z,5.39
2018-06-05T13:06:19.610Z,5.92
2018-06-05T13:12:14.579Z,5.65
2018-06-05T13:18:09.567Z,5.83
2018-06-05T13:24:04.686Z,5.11
2018-06-05T13:29:59.654Z,7.77
2018-06-05T13:35:54.602Z,5.72
2018-06-05T13:41:49.666Z,5.81
2018-06-05T13:47:44.656Z,9.8
2018-06-05T13:53:39.635Z,6.17
2018-06-05T13:59:34.578Z,7.74
2018-06-05T14:05:29.592Z,5.97
2018-06-05T14:11:25.999Z,5.96
2018-06-05T14:17:19.588Z,6.88
2018-06-05T14:23:16.930Z,4.32
2018-06-05T14:29:09.634Z,5.53
2018-06-05T14:35:05.298Z,6.55
2018-06-05T14:40:59.604Z,5.62
2018-06-05T14:46:54.599Z,5.43
2018-06-05T14:52:49.583Z,7.75
2018-06-05T14:58:44.562Z,4.88
2018-06-05T15:04:39.749Z,4.21
2018-06-05T15:10:34.607Z,6.62
2018-06-05T15:16:29.591Z,4.87
2018-06-05T15:22:24.593Z,5.22
2018-06-05T15:28:19.598Z,4.58
2018-06-05T15:34:14.744Z,10.17
2018-06-05T15:40:09.637Z,7.46
2018-06-05T15:46:06.697Z,3.62
2018-06-05T15:51:59.604Z,5.16
2018-06-05T15:57:56.682Z,4.13
2018-06-05T16:03:50.239Z,4.07
2018-06-05T16:09:44.626Z,5.19
2018-06-05T16:15:39.574Z,3.4
2018-06-05T16:21:34.602Z,4.66
2018-06-05T16:27:29.611Z,3.43
2018-06-05T16:33:24.632Z,5.52
2018-06-05T16:39:19.631Z,6.2
2018-06-05T16:45:14.724Z,4.11
2018-06-05T16:51:09.577Z,6.66
2018-06-05T16:57:04.628Z,4.63
2018-06-05T17:02:59.599Z,3.31
2018-06-05T17:08:54.584Z,6.76
2018-06-05T17:14:49.775Z,4.32
2018-06-05T17:20:44.611Z,4.74
2018-06-05T17:26:39.602Z,3.12
2018-06-05T17:32:35.131Z,3.77
2018-06-05T17:38:29.618Z,4.29
2018-06-05T17:44:24.653Z,4.03
2018-06-05T17:50:19.622Z,4.74
2018-06-05T17:56:14.623Z,3.18
2018-06-05T18:02:09.591Z,4.07
2018-06-05T18:08:04.597Z,3.5
2018-06-05T18:13:59.631Z,3.03
2018-06-05T18:19:54.632Z,3.56
2018-06-05T18:25:49.603Z,4.07
2018-06-05T18:31:44.631Z,7.49
2018-06-05T18:37:39.653Z,3.33
2018-06-05T18:43:34.606Z,3.63
2018-06-05T18:49:29.572Z,4.21
2018-06-05T18:55:24.615Z,6.95
2018-06-05T19:01:19.610Z,5.77
2018-06-05T19:07:14.582Z,4.08
2018-06-05T19:13:09.636Z,4.51
2018-06-05T19:19:04.631Z,4.61
2018-06-05T19:24:59.576Z,3.73
2018-06-05T19:30:54.600Z,4.31
2018-06-05T19:36:49.619Z,4.33
2018-06-05T19:42:44.654Z,4.44
2018-06-05T19:48:39.629Z,4.13
2018-06-05T19:54:34.623Z,3.9
2018-06-05T20:00:29.619Z,4.36
2018-06-05T20:06:24.660Z,4.45
2018-06-05T20:12:19.709Z,4.44
2018-06-05T20:18:14.690Z,4.69
2018-06-05T20:24:09.608Z,4.57
2018-06-05T20:30:04.676Z,5.48
2018-06-05T20:35:59.674Z,4.58
2018-06-05T20:41:54.693Z,4.81
2018-06-05T20:47:49.625Z,4.18
2018-06-05T20:53:44.664Z,5.05
2018-06-05T20:59:39.592Z,4.12
2018-06-05T21:05:34.644Z,5.07
2018-06-05T21:11:29.688Z,5.24
2018-06-05T21:17:24.799Z,5.24
2018-06-05T21:23:19.612Z,5.07
2018-06-05T21:29:14.630Z,4.97
2018-06-05T21:35:09.667Z,4.78
2018-06-05T21:41:04.648Z,5.21
2018-06-05T21:46:59.620Z,6.02
2018-06-05T21:52:54.685Z,4.99
2018-06-05T21:58:49.623Z,5.19
2018-06-05T22:04:44.656Z,7.35
2018-06-05T22:10:39.639Z,5.19
2018-06-05T22:16:34.738Z,5.3
2018-06-05T22:22:29.608Z,5.12
2018-06-05T22:28:24.680Z,5.91
2018-06-05T22:34:19.730Z,6.43
2018-06-05T22:40:19.844Z,5.12
2018-06-05T22:46:09.647Z,6.05
2018-06-05T22:52:04.659Z,6.13
2018-06-05T22:57:59.687Z,5.72
2018-06-05T23:03:54.619Z,5.42
2018-06-05T23:09:49.613Z,6.14
2018-06-05T23:15:44.670Z,6.05
2018-06-05T23:21:50.930Z,8.15
2018-06-05T23:27:34.657Z,9.1
2018-06-05T23:33:29.614Z,8.19
2018-06-05T23:39:26.677Z,8.41
2018-06-05T23:45:19.643Z,7.77
2018-06-05T23:51:16.668Z,8.03
2018-06-05T23:57:09.622Z,8.82
